Time;durP1;ratioP1;P1;durP2;ratioP2;P2;SDS_P1;SDS_P2;PMS_P1;PMS_P2;Temp;Humidity;BMP_temperature;BMP_pressure;BME280_temperature;BME280_humidity;BME280_pressure;Samples;Min_cycle;Max_cycle;Signal;HPM_P1;HPM_P2
2021/05/22 00:00:11;;;;;;;5.07;2.03;;;12.70;67.50;;;;;;5075883;28;20456;-70
2021/05/22 00:02:38;;;;;;;6.13;1.23;;;12.70;66.80;;;;;;5077024;28;20502;-70
2021/05/22 00:05:06;;;;;;;6.00;1.20;;;12.60;66.80;;;;;;5075771;28;21027;-70
2021/05/22 00:07:32;;;;;;;3.47;0.90;;;12.70;66.70;;;;;;5075776;28;20479;-70
2021/05/22 00:09:58;;;;;;;6.90;1.10;;;12.70;66.60;;;;;;5076026;28;20452;-70
2021/05/22 00:12:26;;;;;;;2.50;1.20;;;12.80;66.60;;;;;;5075778;28;20444;-70
2021/05/22 00:14:52;;;;;;;5.97;1.33;;;12.80;66.30;;;;;;5075505;28;21019;-70
2021/05/22 00:17:19;;;;;;;4.20;0.90;;;12.80;66.20;;;;;;5075531;28;20459;-70
2021/05/22 00:19:46;;;;;;;6.03;1.03;;;12.80;66.30;;;;;;5075592;28;20456;-70
2021/05/22 00:22:12;;;;;;;2.03;0.97;;;12.90;66.40;;;;;;5075464;28;21006;-70
2021/05/22 00:24:38;;;;;;;3.23;1.13;;;13.00;66.50;;;;;;5075354;28;21031;-70
2021/05/22 00:27:04;;;;;;;3.93;1.30;;;13.10;65.90;;;;;;5075743;28;20457;-70
2021/05/22 00:29:31;;;;;;;12.97;1.40;;;13.10;65.90;;;;;;5075727;28;20445;-70
2021/05/22 00:31:58;;;;;;;5.13;1.07;;;13.10;65.90;;;;;;5075669;28;20453;-70
2021/05/22 00:34:24;;;;;;;11.53;1.07;;;13.10;65.40;;;;;;5075250;28;20464;-70
2021/05/22 00:36:50;;;;;;;3.37;1.00;;;13.10;65.50;;;;;;5075571;28;20506;-70
2021/05/22 00:39:17;;;;;;;3.50;1.00;;;13.10;65.30;;;;;;5075227;28;20429;-70
2021/05/22 00:41:43;;;;;;;5.27;1.43;;;13.10;65.30;;;;;;5075451;28;20859;-70
2021/05/22 00:44:09;;;;;;;1.97;1.00;;;13.10;65.20;;;;;;5075321;28;20445;-70
2021/05/22 00:46:36;;;;;;;3.43;1.20;;;13.20;65.10;;;;;;5075447;28;20445;-70
2021/05/22 00:49:03;;;;;;;4.13;1.00;;;13.10;65.00;;;;;;5074987;28;20444;-70
2021/05/22 00:51:29;;;;;;;3.30;1.20;;;13.10;65.00;;;;;;5075310;28;20440;-70
2021/05/22 00:53:56;;;;;;;7.23;1.47;;;13.10;65.60;;;;;;5075190;28;20448;-70
2021/05/22 00:56:22;;;;;;;6.60;1.03;;;13.10;65.40;;;;;;5074297;28;20483;-70
2021/05/22 00:58:48;;;;;;;2.77;0.90;;;13.00;65.40;;;;;;5075114;28;20459;-70
2021/05/22 01:01:15;;;;;;;4.80;1.07;;;13.00;65.30;;;;;;5074819;28;20460;-70
2021/05/22 01:03:45;;;;;;;6.47;1.20;;;12.90;66.00;;;;;;5075035;28;20449;-70
2021/05/22 01:06:15;;;;;;;1.60;0.70;;;12.90;65.80;;;;;;5076013;28;20468;-70
2021/05/22 01:08:44;;;;;;;3.73;0.80;;;12.90;65.90;;;;;;5075005;28;20459;-70
2021/05/22 01:11:14;;;;;;;4.17;1.10;;;12.80;66.10;;;;;;5074833;28;20449;-70
2021/05/22 01:13:43;;;;;;;2.60;1.13;;;12.80;66.30;;;;;;5074814;28;20437;-70
2021/05/22 01:16:11;;;;;;;3.23;1.20;;;12.80;66.40;;;;;;5074367;28;20492;-70
2021/05/22 01:18:39;;;;;;;2.30;1.00;;;12.80;67.10;;;;;;5074434;28;20445;-70
2021/05/22 01:21:07;;;;;;;4.27;1.80;;;12.70;66.80;;;;;;5074626;28;20449;-70
2021/05/22 01:23:37;;;;;;;3.53;0.90;;;12.70;67.10;;;;;;5074638;28;20805;-70
2021/05/22 01:26:05;;;;;;;3.33;1.23;;;12.70;67.10;;;;;;5075481;28;20461;-70
2021/05/22 01:28:34;;;;;;;4.70;0.93;;;12.70;67.50;;;;;;5074493;28;20455;-70
2021/05/22 01:31:00;;;;;;;4.00;1.30;;;12.60;67.20;;;;;;5074439;28;20826;-70
2021/05/22 01:33:26;;;;;;;4.07;1.13;;;12.70;67.20;;;;;;5074507;28;20445;-70
2021/05/22 01:35:53;;;;;;;5.23;1.23;;;12.60;66.70;;;;;;5074268;28;20534;-70
2021/05/22 01:38:19;;;;;;;1.73;1.10;;;12.60;67.00;;;;;;5074315;28;20809;-70
2021/05/22 01:40:46;;;;;;;5.87;1.20;;;12.60;67.50;;;;;;5074273;28;20513;-70
2021/05/22 01:43:13;;;;;;;4.20;1.97;;;12.50;67.30;;;;;;5074252;28;20449;-70
2021/05/22 01:45:41;;;;;;;4.53;1.10;;;12.50;67.00;;;;;;5074128;28;20511;-70
2021/05/22 01:48:10;;;;;;;2.80;0.77;;;12.50;67.30;;;;;;5073857;28;20440;-70
2021/05/22 01:50:42;;;;;;;3.57;1.03;;;12.50;67.50;;;;;;5073734;28;20942;-70
2021/05/22 01:53:11;;;;;;;2.80;1.17;;;12.40;67.60;;;;;;5074153;28;20492;-70
2021/05/22 01:55:39;;;;;;;4.47;1.03;;;12.40;67.50;;;;;;5073921;28;20485;-70
2021/05/22 01:58:06;;;;;;;7.10;1.10;;;12.40;67.20;;;;;;5073671;28;20452;-70
2021/05/22 02:00:33;;;;;;;2.80;1.10;;;12.40;68.10;;;;;;5073901;28;20444;-70
2021/05/22 02:03:07;;;;;;;3.67;1.13;;;12.40;67.20;;;;;;5073861;28;20445;-69
2021/05/22 02:05:34;;;;;;;3.20;0.80;;;12.40;67.40;;;;;;5073780;28;20467;-68
2021/05/22 02:08:02;;;;;;;3.77;1.27;;;12.40;67.50;;;;;;5073091;28;20452;-68
2021/05/22 02:10:29;;;;;;;2.17;1.00;;;12.40;67.50;;;;;;5073538;28;20433;-68
2021/05/22 02:12:57;;;;;;;4.20;1.00;;;12.30;67.20;;;;;;5073708;28;20886;-68
2021/05/22 02:15:25;;;;;;;3.30;1.13;;;12.30;66.80;;;;;;5073375;28;20492;-68
2021/05/22 02:17:54;;;;;;;4.20;1.10;;;12.40;67.20;;;;;;5073700;28;20425;-68
2021/05/22 02:20:23;;;;;;;4.43;1.00;;;12.40;67.00;;;;;;5073589;28;20514;-68
2021/05/22 02:22:50;;;;;;;5.60;0.87;;;12.30;66.70;;;;;;5073627;28;20436;-68
2021/05/22 02:25:17;;;;;;;1.90;1.13;;;12.30;67.00;;;;;;5073264;28;20883;-68
2021/05/22 02:27:44;;;;;;;5.10;1.53;;;12.30;67.20;;;;;;5073523;28;20502;-68
2021/05/22 02:30:13;;;;;;;5.67;1.27;;;12.40;67.20;;;;;;5073456;28;20454;-68
2021/05/22 02:32:41;;;;;;;5.10;0.90;;;12.40;66.70;;;;;;5073496;28;20456;-68
2021/05/22 02:35:11;;;;;;;5.03;1.30;;;12.40;66.70;;;;;;5073363;28;20476;-68
2021/05/22 02:37:38;;;;;;;2.57;0.90;;;12.40;66.90;;;;;;5073463;28;20452;-68
2021/05/22 02:40:09;;;;;;;5.10;1.57;;;12.40;66.40;;;;;;5073098;28;20449;-68
2021/05/22 02:42:37;;;;;;;4.40;1.33;;;12.30;65.90;;;;;;5073180;28;20413;-68
2021/05/22 02:45:06;;;;;;;3.33;1.40;;;12.30;67.20;;;;;;5073360;28;20871;-70
2021/05/22 02:47:33;;;;;;;3.57;0.87;;;12.30;66.60;;;;;;5073175;28;20444;-70
2021/05/22 02:50:02;;;;;;;5.57;1.53;;;12.30;66.40;;;;;;5073476;28;20448;-70
2021/05/22 02:52:31;;;;;;;8.20;1.37;;;12.30;66.50;;;;;;5073398;28;20445;-70
2021/05/22 02:55:00;;;;;;;4.70;1.20;;;12.30;66.50;;;;;;5073141;28;20488;-70
2021/05/22 02:57:26;;;;;;;9.10;1.30;;;12.30;66.50;;;;;;5073666;28;20441;-70
2021/05/22 02:59:55;;;;;;;4.57;1.73;;;12.30;66.40;;;;;;5073766;28;20449;-70
2021/05/22 03:02:22;;;;;;;11.80;1.53;;;12.30;66.60;;;;;;5073747;28;20455;-70
2021/05/22 03:04:49;;;;;;;7.13;1.13;;;12.30;66.90;;;;;;5074197;28;20464;-70
2021/05/22 03:07:16;;;;;;;7.27;1.50;;;12.30;66.90;;;;;;5080190;28;20445;-70
2021/05/22 03:09:45;;;;;;;2.50;1.13;;;12.30;67.20;;;;;;5075045;28;20452;-70
2021/05/22 03:12:15;;;;;;;2.80;1.17;;;12.30;67.20;;;;;;5074058;28;20440;-70
2021/05/22 03:14:41;;;;;;;5.23;1.73;;;12.30;67.00;;;;;;5073816;28;20472;-70
2021/05/22 03:17:07;;;;;;;6.50;1.50;;;12.30;66.90;;;;;;5073010;28;20467;-69
2021/05/22 03:19:33;;;;;;;4.47;1.87;;;12.30;67.00;;;;;;5075748;28;20449;-69
2021/05/22 03:21:59;;;;;;;4.80;1.30;;;12.20;67.10;;;;;;5077469;28;20926;-69
2021/05/22 03:24:25;;;;;;;4.50;1.00;;;12.20;67.40;;;;;;5076874;28;20460;-69
2021/05/22 03:26:53;;;;;;;11.70;1.70;;;12.20;67.90;;;;;;5076566;28;20441;-68
2021/05/22 03:29:19;;;;;;;5.00;1.30;;;12.20;67.80;;;;;;5076763;28;20476;-68
2021/05/22 03:31:46;;;;;;;5.73;1.57;;;12.10;67.60;;;;;;5076712;28;20451;-68
2021/05/22 03:34:12;;;;;;;4.37;1.37;;;12.20;68.10;;;;;;5076650;28;20482;-68
2021/05/22 03:36:38;;;;;;;8.20;2.10;;;12.10;68.20;;;;;;5076579;28;20483;-68
2021/05/22 03:39:06;;;;;;;5.40;1.50;;;12.10;68.20;;;;;;5076613;28;20452;-68
2021/05/22 03:41:32;;;;;;;14.17;2.33;;;12.10;68.30;;;;;;5076566;28;20451;-68
2021/05/22 03:43:59;;;;;;;10.00;1.53;;;12.20;68.50;;;;;;5076122;28;20453;-69
2021/05/22 03:46:25;;;;;;;5.33;1.20;;;12.30;68.00;;;;;;5076176;28;20934;-69
2021/05/22 03:48:51;;;;;;;6.10;1.73;;;12.30;68.00;;;;;;5076412;28;20441;-69
2021/05/22 03:51:18;;;;;;;3.37;1.10;;;12.30;67.80;;;;;;5076410;28;20448;-69
2021/05/22 03:53:44;;;;;;;4.83;1.30;;;12.30;68.20;;;;;;5076059;28;20956;-69
2021/05/22 03:56:10;;;;;;;8.23;1.47;;;12.30;67.70;;;;;;5076166;28;20475;-69
2021/05/22 03:58:36;;;;;;;3.90;1.23;;;12.30;68.10;;;;;;5076270;28;21071;-69
2021/05/22 04:01:04;;;;;;;7.40;1.40;;;12.30;67.90;;;;;;5076201;28;20494;-69
2021/05/22 04:03:30;;;;;;;5.57;1.40;;;12.30;67.60;;;;;;5075906;28;20540;-69
2021/05/22 04:05:56;;;;;;;7.87;2.00;;;12.30;67.70;;;;;;5076054;28;20465;-69
2021/05/22 04:08:23;;;;;;;8.43;1.50;;;12.40;68.50;;;;;;5075796;28;20989;-69
2021/05/22 04:10:49;;;;;;;6.00;1.40;;;12.40;68.30;;;;;;5076097;28;20510;-69
2021/05/22 04:13:15;;;;;;;11.30;2.37;;;12.40;68.40;;;;;;5076116;28;20447;-69
2021/05/22 04:15:42;;;;;;;6.43;1.40;;;12.40;68.30;;;;;;5075408;28;20499;-69
2021/05/22 04:18:09;;;;;;;8.20;2.07;;;12.40;68.60;;;;;;5075947;28;20444;-69
2021/05/22 04:20:35;;;;;;;4.83;1.90;;;12.40;69.20;;;;;;5075865;28;20448;-69
2021/05/22 04:23:02;;;;;;;9.80;2.10;;;12.40;70.70;;;;;;5075838;28;20475;-69
2021/05/22 04:25:28;;;;;;;7.83;2.03;;;12.40;69.40;;;;;;5075479;28;20465;-69
2021/05/22 04:27:54;;;;;;;10.27;2.80;;;12.50;69.90;;;;;;5075769;28;20456;-68
2021/05/22 04:30:22;;;;;;;18.67;2.10;;;12.50;69.80;;;;;;5074455;28;20453;-68
2021/05/22 04:32:48;;;;;;;6.73;1.73;;;12.50;70.00;;;;;;5075362;28;20447;-68
2021/05/22 04:35:16;;;;;;;9.40;2.30;;;12.50;69.60;;;;;;5075335;28;20488;-68
2021/05/22 04:37:42;;;;;;;14.80;1.77;;;12.60;69.30;;;;;;5075523;28;20535;-68
2021/05/22 04:40:10;;;;;;;8.27;1.67;;;12.60;69.50;;;;;;5075372;28;20449;-68
2021/05/22 04:42:36;;;;;;;8.53;1.77;;;12.60;69.10;;;;;;5075384;28;20456;-68
2021/05/22 04:45:04;;;;;;;12.00;2.13;;;12.60;69.00;;;;;;5075327;28;20465;-68
2021/05/22 04:47:30;;;;;;;6.00;1.40;;;12.60;69.00;;;;;;5075345;28;20483;-68
2021/05/22 04:49:56;;;;;;;13.23;1.97;;;12.60;68.90;;;;;;5075151;28;20457;-68
2021/05/22 04:52:24;;;;;;;9.40;1.20;;;12.60;68.90;;;;;;5075358;28;20441;-68
2021/05/22 04:54:50;;;;;;;8.07;2.23;;;12.70;69.20;;;;;;5074856;28;20481;-68
2021/05/22 04:57:17;;;;;;;4.70;2.00;;;12.70;68.60;;;;;;5074905;28;20449;-69
2021/05/22 04:59:43;;;;;;;10.87;1.50;;;12.70;68.60;;;;;;5075050;28;20452;-69
2021/05/22 05:02:10;;;;;;;12.70;1.77;;;12.70;68.20;;;;;;5074798;28;20470;-69
2021/05/22 05:04:36;;;;;;;6.13;1.77;;;12.70;68.30;;;;;;5075029;28;20461;-68
2021/05/22 05:07:03;;;;;;;6.57;1.47;;;12.70;68.20;;;;;;5074974;28;20479;-68
2021/05/22 05:09:33;;;;;;;9.40;2.13;;;12.80;68.30;;;;;;5074902;28;20832;-68
2021/05/22 05:12:01;;;;;;;9.83;1.37;;;12.80;68.10;;;;;;5074927;28;20449;-68
2021/05/22 05:14:27;;;;;;;6.13;1.53;;;12.80;68.30;;;;;;5074768;28;20476;-68
2021/05/22 05:16:53;;;;;;;7.77;1.67;;;12.80;68.00;;;;;;5074478;28;20489;-68
2021/05/22 05:19:19;;;;;;;11.07;1.80;;;12.80;67.80;;;;;;5074386;28;20481;-68
2021/05/22 05:21:45;;;;;;;7.40;1.43;;;12.80;67.50;;;;;;5074682;28;20490;-68
2021/05/22 05:24:12;;;;;;;11.53;2.77;;;12.90;67.60;;;;;;5074563;28;20445;-69
2021/05/22 05:26:39;;;;;;;6.43;1.80;;;12.90;67.40;;;;;;5074585;28;20448;-69
2021/05/22 05:29:05;;;;;;;10.63;1.50;;;13.00;67.30;;;;;;5074687;28;20452;-69
2021/05/22 05:31:31;;;;;;;9.23;1.50;;;13.00;67.10;;;;;;5074594;28;20448;-69
2021/05/22 05:33:57;;;;;;;9.23;2.00;;;13.10;67.60;;;;;;5074599;28;20445;-69
2021/05/22 05:36:24;;;;;;;7.10;1.40;;;13.10;67.00;;;;;;5074408;28;20483;-69
2021/05/22 05:38:50;;;;;;;6.47;1.60;;;13.20;67.20;;;;;;5074477;28;20460;-69
2021/05/22 05:41:16;;;;;;;8.63;1.53;;;13.20;67.10;;;;;;5074292;28;20784;-69
2021/05/22 05:43:43;;;;;;;13.10;2.23;;;13.20;66.30;;;;;;5074288;28;20441;-69
2021/05/22 05:46:09;;;;;;;15.30;2.03;;;13.20;66.60;;;;;;5074188;28;20461;-69
2021/05/22 05:48:36;;;;;;;10.23;1.97;;;13.40;67.10;;;;;;5074240;28;20449;-69
2021/05/22 05:51:02;;;;;;;9.00;1.57;;;13.40;66.50;;;;;;5073892;28;20957;-69
2021/05/22 05:53:28;;;;;;;7.90;1.43;;;13.40;65.90;;;;;;5074110;28;20449;-69
2021/05/22 05:55:55;;;;;;;12.87;1.70;;;13.40;66.20;;;;;;5073875;28;20488;-69
2021/05/22 05:58:21;;;;;;;12.23;2.40;;;13.30;66.80;;;;;;5074062;28;20433;-69
2021/05/22 06:00:49;;;;;;;6.20;1.60;;;13.40;66.60;;;;;;5073944;28;20440;-69
2021/05/22 06:03:25;;;;;;;14.40;2.87;;;13.20;66.40;;;;;;5073924;28;20453;-69
2021/05/22 06:05:52;;;;;;;13.23;1.90;;;13.20;66.70;;;;;;5073934;28;20464;-69
2021/05/22 06:08:18;;;;;;;8.90;1.33;;;13.30;66.80;;;;;;5073981;28;20491;-69
2021/05/22 06:10:47;;;;;;;12.30;2.50;;;13.30;66.80;;;;;;5073692;28;20441;-69
2021/05/22 06:13:21;;;;;;;10.83;2.40;;;13.30;66.80;;;;;;5074149;28;20449;-68
2021/05/22 06:15:50;;;;;;;10.57;2.20;;;13.20;66.50;;;;;;5074661;28;20487;-68
2021/05/22 06:18:16;;;;;;;8.97;1.70;;;13.20;67.10;;;;;;5075271;28;20544;-68
2021/05/22 06:20:42;;;;;;;12.80;1.93;;;13.00;66.80;;;;;;5073701;28;20456;-68
2021/05/22 06:23:09;;;;;;;15.57;2.60;;;13.00;67.50;;;;;;5073641;28;20475;-68
2021/05/22 06:25:35;;;;;;;9.23;2.00;;;13.20;67.70;;;;;;5073541;28;20461;-68
2021/05/22 06:28:01;;;;;;;8.73;1.50;;;13.20;67.40;;;;;;5073630;28;20436;-68
2021/05/22 06:30:28;;;;;;;17.60;1.80;;;13.30;67.40;;;;;;5073292;28;20819;-68
2021/05/22 06:32:55;;;;;;;14.17;2.10;;;13.30;66.80;;;;;;5073209;28;20970;-68
2021/05/22 06:35:21;;;;;;;11.87;1.57;;;13.30;66.80;;;;;;5073035;28;21019;-68
2021/05/22 06:37:47;;;;;;;13.97;1.67;;;13.30;66.80;;;;;;5073502;28;20463;-68
2021/05/22 06:40:14;;;;;;;9.20;1.70;;;13.20;66.40;;;;;;5073515;28;20470;-69
2021/05/22 06:42:41;;;;;;;11.57;1.77;;;13.10;67.10;;;;;;5074251;28;20500;-69
2021/05/22 06:45:13;;;;;;;8.00;1.73;;;13.00;66.80;;;;;;5073835;28;20476;-69
2021/05/22 06:47:39;;;;;;;9.33;1.63;;;13.00;68.00;;;;;;5073432;28;20584;-68
2021/05/22 06:50:08;;;;;;;5.70;1.37;;;13.00;68.60;;;;;;5073372;28;20836;-69
2021/05/22 06:52:35;;;;;;;15.33;2.40;;;12.90;69.00;;;;;;5073373;28;20499;-69
2021/05/22 06:55:01;;;;;;;9.57;1.63;;;12.90;70.20;;;;;;5076841;28;20468;-68
2021/05/22 06:57:27;;;;;;;10.17;2.10;;;12.90;70.70;;;;;;5077164;28;20947;-68
2021/05/22 06:59:54;;;;;;;6.53;1.40;;;12.80;70.80;;;;;;5077102;28;20437;-68
2021/05/22 07:02:20;;;;;;;5.50;1.30;;;12.70;71.10;;;;;;5077371;28;20444;-69
2021/05/22 07:04:47;;;;;;;6.47;1.70;;;12.70;73.30;;;;;;5077230;28;20461;-68
2021/05/22 07:07:14;;;;;;;3.93;1.20;;;12.80;73.20;;;;;;5077322;28;20858;-68
2021/05/22 07:09:40;;;;;;;3.70;1.10;;;12.70;72.90;;;;;;5077265;28;20449;-69
2021/05/22 07:12:09;;;;;;;6.70;1.40;;;12.70;73.00;;;;;;5076900;28;20440;-68
2021/05/22 07:14:35;;;;;;;6.73;1.73;;;12.60;73.20;;;;;;5077012;28;20856;-68
2021/05/22 07:17:02;;;;;;;3.27;1.10;;;12.70;74.10;;;;;;5076602;28;20510;-68
2021/05/22 07:19:29;;;;;;;6.20;1.00;;;12.70;73.50;;;;;;5076993;28;20448;-68
2021/05/22 07:21:56;;;;;;;6.90;2.00;;;12.70;73.50;;;;;;5076953;28;20470;-68
2021/05/22 07:24:24;;;;;;;5.03;1.30;;;12.80;72.50;;;;;;5076876;28;20472;-68
2021/05/22 07:26:51;;;;;;;9.80;1.53;;;12.90;73.00;;;;;;5076959;28;20433;-68
2021/05/22 07:29:18;;;;;;;5.60;1.00;;;13.00;73.20;;;;;;5076879;28;20437;-69
2021/05/22 07:31:45;;;;;;;3.37;1.50;;;13.00;72.80;;;;;;5076438;28;20539;-69
2021/05/22 07:34:12;;;;;;;7.30;1.30;;;13.10;73.20;;;;;;5076719;28;20453;-69
2021/05/22 07:36:39;;;;;;;10.90;1.40;;;13.20;73.40;;;;;;5076259;28;20829;-69
2021/05/22 07:39:09;;;;;;;6.40;1.10;;;13.10;73.50;;;;;;5077005;28;20432;-68
2021/05/22 07:41:37;;;;;;;7.97;1.70;;;13.10;74.90;;;;;;5076573;28;20453;-68
2021/05/22 07:44:03;;;;;;;4.80;1.20;;;13.00;75.90;;;;;;5076488;28;20444;-68
2021/05/22 07:46:30;;;;;;;4.50;1.37;;;12.90;77.20;;;;;;5076497;28;20441;-68
2021/05/22 07:48:56;;;;;;;5.93;1.37;;;12.80;78.00;;;;;;5076437;28;20448;-68
2021/05/22 07:51:22;;;;;;;2.40;1.10;;;12.80;79.10;;;;;;5076149;28;20792;-68
2021/05/22 07:53:48;;;;;;;3.50;1.17;;;12.80;78.80;;;;;;5076326;28;20440;-68
2021/05/22 07:56:15;;;;;;;4.23;0.90;;;12.80;76.10;;;;;;5076145;28;20503;-68
2021/05/22 07:58:42;;;;;;;4.97;0.90;;;12.80;77.30;;;;;;5076133;28;21003;-68
2021/05/22 08:01:08;;;;;;;5.40;1.30;;;12.80;76.60;;;;;;5076202;28;20468;-69
2021/05/22 08:03:35;;;;;;;5.60;1.17;;;12.80;76.50;;;;;;5076290;28;20441;-69
2021/05/22 08:06:01;;;;;;;6.03;1.57;;;12.80;76.50;;;;;;5074988;28;20465;-69
2021/05/22 08:08:27;;;;;;;12.10;1.77;;;12.90;76.90;;;;;;5076176;28;20444;-69
2021/05/22 08:10:54;;;;;;;8.33;1.37;;;12.90;75.90;;;;;;5076143;28;20444;-69
2021/05/22 08:13:20;;;;;;;8.60;1.20;;;13.00;76.10;;;;;;5075796;28;20493;-68
2021/05/22 08:15:47;;;;;;;5.83;1.50;;;13.20;76.70;;;;;;5076075;28;20826;-68
2021/05/22 08:18:13;;;;;;;7.70;1.30;;;13.20;75.20;;;;;;5076233;28;20445;-68
2021/05/22 08:20:40;;;;;;;5.17;1.50;;;13.10;75.70;;;;;;5076015;28;20843;-69
2021/05/22 08:23:06;;;;;;;10.37;1.43;;;13.20;76.30;;;;;;5075802;28;20456;-69
2021/05/22 08:25:32;;;;;;;7.07;1.50;;;13.10;75.30;;;;;;5075732;28;20468;-70
2021/05/22 08:27:58;;;;;;;4.93;1.17;;;13.10;76.30;;;;;;5075826;28;20448;-71
2021/05/22 08:30:25;;;;;;;9.07;1.70;;;13.00;76.40;;;;;;5075903;28;20455;-69
2021/05/22 08:32:52;;;;;;;15.17;2.43;;;13.10;76.10;;;;;;5075672;28;20440;-68
2021/05/22 08:35:19;;;;;;;12.07;2.10;;;13.20;76.10;;;;;;5075472;28;20465;-68
2021/05/22 08:37:45;;;;;;;12.30;1.63;;;13.20;75.90;;;;;;5075669;28;20498;-68
2021/05/22 08:40:13;;;;;;;6.00;1.40;;;13.20;74.80;;;;;;5075910;28;20441;-68
2021/05/22 08:42:39;;;;;;;5.63;1.40;;;13.20;75.40;;;;;;5075308;28;20498;-68
2021/05/22 08:45:08;;;;;;;11.97;2.47;;;13.20;75.00;;;;;;5075434;28;20476;-68
2021/05/22 08:47:34;;;;;;;13.60;2.13;;;13.00;74.60;;;;;;5075380;28;20449;-68
2021/05/22 08:50:02;;;;;;;9.00;1.73;;;12.90;74.20;;;;;;5075406;28;20515;-68
2021/05/22 08:52:28;;;;;;;24.17;3.00;;;12.90;74.00;;;;;;5075353;28;20448;-68
2021/05/22 08:54:54;;;;;;;28.37;2.53;;;12.90;74.50;;;;;;5075236;28;20484;-68
2021/05/22 08:57:21;;;;;;;17.43;1.90;;;12.80;74.90;;;;;;5075433;28;20472;-69
2021/05/22 08:59:48;;;;;;;14.27;1.90;;;12.90;74.20;;;;;;5075845;28;20866;-69
2021/05/22 09:02:18;;;;;;;20.47;2.40;;;12.90;73.40;;;;;;5075107;28;20459;-69
2021/05/22 09:05:07;;;;;;;17.93;2.73;;;12.90;74.60;;;;;;5074734;28;20998;-69
2021/05/22 09:07:35;;;;;;;17.10;1.90;;;12.90;74.20;;;;;;5075243;28;20436;-69
2021/05/22 09:10:08;;;;;;;19.43;2.20;;;12.90;74.10;;;;;;5074666;28;20479;-69
2021/05/22 09:12:35;;;;;;;6.63;1.50;;;12.80;73.00;;;;;;5074636;28;20943;-69
2021/05/22 09:15:07;;;;;;;12.83;2.30;;;12.90;73.40;;;;;;5074678;28;20469;-70
2021/05/22 09:17:34;;;;;;;13.50;1.50;;;12.90;73.30;;;;;;5074487;28;20437;-70
2021/05/22 09:20:16;;;;;;;10.07;1.80;;;13.00;72.90;;;;;;5074921;28;20444;-75
2021/05/22 09:22:42;;;;;;;13.83;2.50;;;12.80;73.50;;;;;;5074829;28;20437;-72
2021/05/22 09:25:10;;;;;;;17.00;1.70;;;12.80;75.80;;;;;;5074548;28;20468;-70
2021/05/22 09:27:38;;;;;;;7.53;1.77;;;12.90;76.20;;;;;;5074596;28;20447;-69
2021/05/22 09:30:07;;;;;;;16.10;1.93;;;12.80;76.40;;;;;;5074850;28;20432;-69
2021/05/22 09:32:34;;;;;;;14.30;2.40;;;12.90;77.10;;;;;;5074771;28;20401;-69
2021/05/22 09:35:00;;;;;;;16.40;2.50;;;12.90;77.10;;;;;;5074875;28;20468;-69
2021/05/22 09:37:27;;;;;;;6.50;1.60;;;12.90;77.30;;;;;;5074183;28;20481;-69
2021/05/22 09:39:53;;;;;;;8.40;1.90;;;12.90;76.50;;;;;;5074151;28;20935;-68
2021/05/22 09:42:26;;;;;;;9.70;2.03;;;12.90;77.80;;;;;;5074446;28;20437;-68
2021/05/22 09:44:53;;;;;;;6.83;1.70;;;12.90;77.90;;;;;;5074046;28;20461;-68
2021/05/22 09:47:20;;;;;;;10.03;1.97;;;12.80;79.00;;;;;;5074265;28;20429;-69
2021/05/22 09:49:50;;;;;;;7.20;1.67;;;12.70;79.00;;;;;;5074210;28;20433;-69
2021/05/22 09:52:17;;;;;;;7.33;1.30;;;12.70;79.70;;;;;;5074116;28;20443;-69
2021/05/22 09:54:46;;;;;;;6.13;1.50;;;12.70;80.60;;;;;;5074079;28;20469;-69
2021/05/22 09:57:15;;;;;;;8.03;1.50;;;12.70;80.40;;;;;;5074039;28;20465;-69
2021/05/22 09:59:42;;;;;;;3.43;1.13;;;12.70;81.00;;;;;;5074168;28;20436;-69
2021/05/22 10:02:10;;;;;;;6.40;1.90;;;12.80;80.00;;;;;;5074054;28;20448;-69
2021/05/22 10:04:36;;;;;;;5.27;1.40;;;12.70;79.90;;;;;;5073891;28;20469;-69
2021/05/22 10:07:02;;;;;;;4.43;1.63;;;12.90;80.90;;;;;;5073931;28;20495;-69
2021/05/22 10:09:29;;;;;;;4.43;1.17;;;12.90;79.70;;;;;;5074132;28;20425;-69
2021/05/22 10:12:09;;;;;;;3.33;1.23;;;13.10;80.60;;;;;;5073959;28;20789;-69
2021/05/22 10:14:37;;;;;;;10.33;2.30;;;13.00;79.60;;;;;;5073821;28;20921;-69
2021/05/22 10:17:04;;;;;;;4.90;1.30;;;13.00;79.40;;;;;;5073425;28;20484;-68
2021/05/22 10:19:32;;;;;;;4.17;1.63;;;13.00;80.00;;;;;;5073438;28;20949;-68
2021/05/22 10:22:00;;;;;;;5.40;1.90;;;12.90;79.80;;;;;;5073754;28;20445;-69
2021/05/22 10:24:27;;;;;;;12.07;2.20;;;12.90;80.10;;;;;;5073711;28;20471;-69
2021/05/22 10:26:54;;;;;;;6.70;1.83;;;12.80;80.10;;;;;;5073729;28;20452;-69
2021/05/22 10:29:23;;;;;;;6.70;1.90;;;12.80;79.80;;;;;;5072965;28;20433;-68
2021/05/22 10:31:50;;;;;;;6.00;1.20;;;12.90;79.60;;;;;;5073647;28;20425;-68
2021/05/22 10:34:18;;;;;;;4.03;1.50;;;12.90;79.30;;;;;;5073277;28;20922;-68
2021/05/22 10:36:47;;;;;;;6.47;1.03;;;12.90;79.40;;;;;;5073534;28;20481;-68
2021/05/22 10:39:42;;;;;;;3.30;1.20;;;12.90;80.20;;;;;;5073529;28;20444;-68
2021/05/22 10:42:30;;;;;;;7.53;2.70;;;13.00;80.70;;;;;;5073474;28;20432;-68
2021/05/22 10:44:58;;;;;;;11.80;2.40;;;13.10;79.20;;;;;;5072913;28;20473;-68
2021/05/22 10:47:27;;;;;;;6.37;1.33;;;13.20;78.90;;;;;;5073627;28;20603;-68
2021/05/22 10:49:55;;;;;;;10.97;1.70;;;13.30;77.90;;;;;;5073060;28;20467;-68
2021/05/22 10:52:22;;;;;;;9.40;1.80;;;13.50;77.70;;;;;;5073339;28;20498;-68
2021/05/22 10:55:04;;;;;;;11.20;1.63;;;13.50;75.80;;;;;;5073292;28;20461;-68
2021/05/22 10:57:32;;;;;;;16.17;2.20;;;13.70;75.70;;;;;;5072943;28;20978;-68
2021/05/22 11:00:20;;;;;;;8.83;1.87;;;13.80;76.20;;;;;;5073331;28;20452;-68
2021/05/22 11:02:48;;;;;;;8.37;1.53;;;13.80;75.60;;;;;;5073361;28;20432;-68
2021/05/22 11:05:36;;;;;;;16.67;2.50;;;13.80;73.50;;;;;;5073207;28;20913;-68
2021/05/22 11:08:29;;;;;;;16.80;3.03;;;13.80;75.00;;;;;;5073223;28;20448;-67
2021/05/22 11:11:04;;;;;;;14.40;2.13;;;13.80;75.50;;;;;;5073138;28;20469;-68
2021/05/22 11:13:39;;;;;;;13.43;3.17;;;13.70;76.60;;;;;;5073267;28;20429;-68
2021/05/22 11:16:07;;;;;;;10.30;2.90;;;13.70;76.10;;;;;;5072682;28;20524;-68
2021/05/22 11:19:02;;;;;;;17.30;3.40;;;13.60;76.50;;;;;;5073095;28;20455;-68
2021/05/22 11:21:29;;;;;;;19.93;3.87;;;13.60;77.20;;;;;;5073079;28;20502;-68
2021/05/22 11:24:10;;;;;;;9.13;3.20;;;13.60;77.20;;;;;;5072974;28;20447;-68
2021/05/22 11:26:58;;;;;;;9.77;3.30;;;13.40;77.70;;;;;;5073044;28;20437;-67
2021/05/22 11:29:57;;;;;;;8.13;3.37;;;13.50;78.30;;;;;;5073225;28;20899;-68
2021/05/22 11:32:49;;;;;;;3.70;1.90;;;13.40;78.90;;;;;;5073143;28;20429;-68
2021/05/22 11:35:38;;;;;;;4.60;2.00;;;13.40;77.90;;;;;;5072931;28;20472;-67
2021/05/22 11:38:32;;;;;;;6.17;2.27;;;13.30;79.50;;;;;;5072750;28;20484;-67
2021/05/22 11:41:00;;;;;;;6.90;2.77;;;13.30;80.20;;;;;;5076422;28;20429;-67
2021/05/22 11:43:30;;;;;;;10.37;2.40;;;13.40;81.00;;;;;;5076606;28;20432;-67
2021/05/22 11:45:59;;;;;;;7.63;1.93;;;13.30;80.50;;;;;;5076506;28;20460;-68
2021/05/22 11:48:27;;;;;;;8.90;4.03;;;13.30;79.10;;;;;;5076915;28;20950;-67
2021/05/22 11:50:55;;;;;;;7.30;3.57;;;13.30;80.50;;;;;;5076211;28;20539;-68
2021/05/22 11:53:21;;;;;;;7.07;2.43;;;13.40;81.20;;;;;;5077615;28;20436;-68
2021/05/22 11:55:55;;;;;;;7.80;1.63;;;13.40;80.70;;;;;;5077045;28;20485;-68
2021/05/22 11:58:21;;;;;;;12.73;1.90;;;13.60;81.80;;;;;;5076707;28;20456;-68
2021/05/22 12:00:47;;;;;;;12.13;1.63;;;13.70;81.90;;;;;;5076025;28;20861;-67
2021/05/22 12:03:23;;;;;;;15.67;1.87;;;14.00;81.60;;;;;;5076324;28;20448;-67
2021/05/22 12:05:50;;;;;;;9.40;2.50;;;14.10;80.30;;;;;;5076148;28;20472;-67
2021/05/22 12:08:18;;;;;;;7.53;1.80;;;14.30;80.00;;;;;;5075797;28;20465;-67
2021/05/22 12:10:44;;;;;;;6.33;2.37;;;14.20;79.20;;;;;;5076166;28;20453;-67
2021/05/22 12:13:10;;;;;;;6.73;1.60;;;14.20;80.90;;;;;;5076066;28;20444;-67
2021/05/22 12:15:38;;;;;;;5.87;1.87;;;14.10;80.40;;;;;;5075690;28;20492;-67
2021/05/22 12:18:07;;;;;;;9.50;1.90;;;14.00;80.60;;;;;;5076059;28;20436;-67
2021/05/22 12:20:46;;;;;;;5.63;1.70;;;14.00;81.90;;;;;;5075999;28;20493;-68
2021/05/22 12:23:26;;;;;;;6.57;1.90;;;14.00;81.10;;;;;;5075937;28;20436;-67
2021/05/22 12:25:54;;;;;;;7.50;1.63;;;14.10;80.80;;;;;;5075779;28;20475;-68
2021/05/22 12:28:23;;;;;;;4.53;1.67;;;14.00;81.50;;;;;;5075715;28;20459;-68
2021/05/22 12:30:51;;;;;;;6.73;2.47;;;13.90;81.40;;;;;;5076590;28;20813;-68
2021/05/22 12:33:18;;;;;;;9.23;2.30;;;13.70;81.60;;;;;;5075685;28;20505;-68
2021/05/22 12:35:47;;;;;;;5.07;1.90;;;13.70;82.80;;;;;;5075662;28;20845;-67
2021/05/22 12:38:14;;;;;;;7.00;1.60;;;13.60;81.40;;;;;;5075307;28;20998;-67
2021/05/22 12:40:48;;;;;;;6.83;2.13;;;13.50;81.80;;;;;;5075586;28;20448;-67
2021/05/22 12:43:15;;;;;;;10.40;2.03;;;13.50;81.70;;;;;;5075501;28;20452;-67
2021/05/22 12:45:43;;;;;;;5.70;2.00;;;13.60;82.00;;;;;;5075470;28;21047;-68
2021/05/22 12:48:22;;;;;;;8.43;1.37;;;13.70;81.70;;;;;;5075443;28;20448;-68